This is the latest recevied weather packets stored in our database for station/object DC0PP-10. If no packets are shown the sender has not sent any weather packets the latest 10 day(s).
| Time | Temp. | Humidity | Pressure | Rain* | Wind** | Luminosity | Snow |
|---|---|---|---|---|---|---|---|
| 1777684239 | 14.44° C | 51% | 1023.4 hPa | - | - | - | - |
| 1777683339 | 14.44° C | 51% | 1023.5 hPa | - | - | - | - |
| 1777682439 | 15.56° C | 47% | 1023.4 hPa | - | - | - | - |
| 1777681541 | 15.56° C | 45% | 1023.5 hPa | - | - | - | - |
| 1777680641 | 15.56° C | 46% | 1023.6 hPa | - | - | - | - |
| 1777679741 | 16.11° C | 45% | 1023.8 hPa | - | - | - | - |
| 1777678841 | 16.11° C | 45% | 1023.7 hPa | - | - | - | - |
| 1777677940 | 16.11° C | 45% | 1024 hPa | - | - | - | - |
| 1777677040 | 16.11° C | 46% | 1023.8 hPa | - | - | - | - |
| 1777676140 | 15° C | 49% | 1023.9 hPa | - | - | - | - |
| 1777675240 | 15.56° C | 48% | 1023.9 hPa | - | - | - | - |
| 1777674346 | 15.56° C | 47% | 1024 hPa | - | - | - | - |
| 1777673440 | 15° C | 49% | 1023.9 hPa | - | - | - | - |
| 1777672540 | 15.56° C | 48% | 1023.8 hPa | - | - | - | - |
| 1777671639 | 15.56° C | 46% | 1023.8 hPa | - | - | - | - |
| 1777670739 | 16.11° C | 45% | 1023.7 hPa | - | - | - | - |
| 1777669839 | 16.11° C | 45% | 1023.8 hPa | - | - | - | - |
| 1777668939 | 16.67° C | 43% | 1023.7 hPa | - | - | - | - |
| 1777668039 | 17.22° C | 45% | 1023.7 hPa | - | - | - | - |
| 1777667139 | 17.22° C | 44% | 1023.6 hPa | - | - | - | - |
| 1777666238 | 17.22° C | 44% | 1023.6 hPa | - | - | - | - |
| 1777665338 | 17.78° C | 44% | 1023.5 hPa | - | - | - | - |
| 1777664438 | 17.78° C | 42% | 1023.3 hPa | - | - | - | - |
| 1777663538 | 18.33° C | 43% | 1023.2 hPa | - | - | - | - |
| 1777662638 | 18.33° C | 44% | 1023.1 hPa | - | - | - | - |
* Rain since midnight (hover to see other rain measurements)
** Current wind speed in m/s (hover to see current wind gust speed)